createdAt,value
2022-08-10T00:00:58.668Z,15.07
2022-08-10T00:03:42.212Z,15.06
2022-08-10T00:06:10.514Z,15.08
2022-08-10T00:08:39.306Z,15.10
2022-08-10T00:11:16.825Z,15.12
2022-08-10T00:13:53.330Z,15.18
2022-08-10T00:16:41.989Z,15.36
2022-08-10T00:19:19.469Z,15.58
2022-08-10T00:21:49.753Z,15.72
2022-08-10T00:24:25.339Z,15.86
2022-08-10T00:27:52.712Z,16.01
2022-08-10T00:30:00.214Z,16.12
2022-08-10T00:32:38.145Z,16.21
2022-08-10T00:35:16.242Z,16.27
2022-08-10T00:38:04.314Z,16.31
2022-08-10T00:40:47.670Z,16.36
2022-08-10T00:43:23.579Z,16.37
2022-08-10T00:46:09.923Z,16.39
2022-08-10T00:48:46.713Z,16.41
2022-08-10T00:51:40.353Z,16.42
2022-08-10T00:54:26.890Z,16.42
2022-08-10T00:57:16.021Z,16.40
2022-08-10T01:00:00.460Z,16.39
2022-08-10T01:02:33.039Z,16.39
2022-08-10T01:05:19.953Z,16.34
2022-08-10T01:08:15.849Z,16.30
2022-08-10T01:12:37.893Z,16.26
2022-08-10T01:14:18.844Z,16.23
2022-08-10T01:17:10.052Z,16.22
2022-08-10T01:20:09.498Z,16.20
2022-08-10T01:23:10.868Z,16.15
2022-08-10T01:26:11.531Z,16.12
2022-08-10T01:29:11.527Z,16.06
2022-08-10T01:31:53.732Z,16.01
2022-08-10T01:34:49.194Z,15.99
2022-08-10T01:37:40.592Z,15.95
2022-08-10T01:40:16.818Z,15.90
2022-08-10T01:42:50.583Z,15.89
2022-08-10T01:45:28.315Z,15.89
2022-08-10T01:48:26.217Z,15.88
2022-08-10T01:51:03.231Z,15.87
2022-08-10T01:53:42.792Z,15.85
2022-08-10T01:56:22.955Z,15.83
2022-08-10T01:59:14.297Z,15.81
2022-08-10T02:01:47.842Z,15.77
2022-08-10T02:04:25.936Z,15.73
2022-08-10T02:07:02.382Z,15.67
2022-08-10T02:09:48.194Z,15.64
2022-08-10T02:12:29.086Z,15.60
2022-08-10T02:15:04.255Z,15.52
2022-08-10T02:17:57.988Z,15.49
2022-08-10T02:20:51.397Z,15.44
2022-08-10T02:23:42.997Z,15.40
2022-08-10T02:26:13.142Z,15.40
2022-08-10T02:28:42.092Z,15.36
2022-08-10T02:31:39.332Z,15.32
2022-08-10T02:34:18.152Z,15.28
2022-08-10T02:37:03.720Z,15.27
2022-08-10T02:39:47.896Z,15.28
2022-08-10T02:45:29.743Z,15.25
2022-08-10T02:45:46.291Z,15.25
2022-08-10T02:48:21.433Z,15.23
2022-08-10T02:51:04.003Z,15.21
2022-08-10T02:53:58.866Z,15.18
2022-08-10T02:56:39.580Z,15.18
2022-08-10T02:59:39.741Z,15.15
2022-08-10T03:02:23.933Z,15.14
2022-08-10T03:05:17.234Z,15.11
2022-08-10T03:08:21.655Z,15.06
2022-08-10T03:10:57.932Z,15.02
2022-08-10T03:13:47.091Z,15.01
2022-08-10T03:16:37.830Z,15.02
2022-08-10T03:19:08.363Z,15.00
2022-08-10T03:22:03.540Z,15.00
2022-08-10T03:24:41.682Z,15.01
2022-08-10T03:27:25.347Z,15.01
2022-08-10T03:30:32.942Z,15.02
2022-08-10T03:33:08.544Z,15.02
2022-08-10T03:35:42.380Z,15.00
2022-08-10T03:38:35.860Z,14.94
2022-08-10T03:41:35.754Z,14.91
2022-08-10T03:44:21.674Z,14.91
2022-08-10T03:47:16.297Z,14.93
2022-08-10T03:49:55.538Z,14.94
2022-08-10T03:52:31.504Z,14.97
2022-08-10T03:55:09.040Z,15.01
2022-08-10T03:58:06.366Z,15.02
2022-08-10T04:00:36.323Z,15.04
2022-08-10T04:03:17.447Z,15.04
2022-08-10T04:06:01.169Z,15.06
2022-08-10T04:08:39.298Z,15.07
2022-08-10T04:11:18.940Z,15.10
2022-08-10T04:13:55.519Z,15.13
2022-08-10T04:16:32.416Z,15.14
2022-08-10T04:19:01.685Z,15.13
2022-08-10T04:21:44.410Z,15.11
2022-08-10T04:24:26.907Z,15.14
2022-08-10T04:27:05.332Z,15.16
2022-08-10T04:29:33.506Z,15.17
2022-08-10T04:32:27.345Z,15.23
2022-08-10T04:35:09.743Z,15.30
2022-08-10T04:37:49.432Z,15.35
2022-08-10T04:40:29.351Z,15.42
2022-08-10T04:43:12.959Z,15.42
2022-08-10T04:45:51.708Z,15.36
2022-08-10T04:48:41.510Z,15.33
2022-08-10T04:51:28.370Z,15.39
2022-08-10T04:54:07.096Z,15.46
2022-08-10T04:56:43.364Z,15.55
2022-08-10T04:59:22.574Z,15.65
2022-08-10T05:02:22.035Z,15.73
2022-08-10T05:04:56.481Z,15.80
2022-08-10T05:07:24.018Z,15.82
2022-08-10T05:10:01.383Z,15.85
2022-08-10T05:12:40.573Z,15.93
2022-08-10T05:15:13.948Z,16.00
2022-08-10T05:18:04.714Z,15.99
2022-08-10T05:20:39.783Z,15.99
2022-08-10T05:23:10.944Z,16.04
2022-08-10T05:25:44.241Z,16.11
2022-08-10T05:28:34.132Z,16.15
2022-08-10T05:31:06.612Z,16.21
2022-08-10T05:33:48.929Z,16.24
2022-08-10T05:36:28.575Z,16.30
2022-08-10T05:39:05.516Z,16.40
2022-08-10T05:41:47.760Z,16.47
2022-08-10T05:44:35.107Z,16.57
2022-08-10T05:47:12.891Z,16.66
2022-08-10T05:49:43.683Z,16.73
2022-08-10T05:52:11.489Z,16.77
2022-08-10T05:54:42.636Z,16.75
2022-08-10T05:57:12.713Z,16.83
2022-08-10T06:00:32.953Z,16.91
2022-08-10T06:03:17.066Z,16.99
2022-08-10T06:06:02.100Z,17.09
2022-08-10T06:08:48.464Z,17.12
2022-08-10T06:12:25.620Z,17.17
2022-08-10T06:14:44.248Z,17.24
2022-08-10T06:17:31.797Z,17.24
2022-08-10T06:20:25.404Z,17.34
2022-08-10T06:23:13.090Z,17.51
2022-08-10T06:26:26.744Z,17.62
2022-08-10T06:29:12.306Z,17.68
2022-08-10T06:32:02.742Z,17.72
2022-08-10T06:35:02.047Z,17.79
2022-08-10T06:37:51.500Z,17.89
2022-08-10T06:40:27.227Z,17.98
2022-08-10T06:43:13.917Z,17.99
2022-08-10T06:46:07.957Z,18.06
2022-08-10T06:49:39.084Z,18.16
2022-08-10T06:52:32.965Z,18.34
2022-08-10T06:55:05.236Z,18.41
2022-08-10T06:57:59.824Z,18.50
2022-08-10T07:00:37.953Z,18.56
2022-08-10T07:03:36.336Z,18.64
2022-08-10T07:06:15.880Z,18.71
2022-08-10T07:08:52.653Z,18.73
2022-08-10T07:11:41.319Z,18.74
2022-08-10T07:14:25.229Z,18.82
2022-08-10T07:17:06.139Z,18.82
2022-08-10T07:19:57.640Z,18.83
2022-08-10T07:23:50.720Z,18.88
2022-08-10T07:25:57.016Z,19.03
2022-08-10T07:28:28.825Z,19.21
2022-08-10T07:31:55.099Z,19.38
2022-08-10T07:34:29.754Z,19.50
2022-08-10T07:37:02.906Z,19.62
2022-08-10T07:40:02.261Z,19.64
2022-08-10T07:42:54.584Z,19.65
2022-08-10T07:45:33.991Z,19.70
2022-08-10T07:48:08.327Z,19.70
2022-08-10T07:50:59.055Z,19.69
2022-08-10T07:53:44.698Z,19.73
2022-08-10T07:56:47.914Z,19.81
2022-08-10T07:59:48.642Z,19.92
2022-08-10T08:02:28.926Z,20.01
2022-08-10T08:05:27.543Z,20.06
2022-08-10T08:08:23.616Z,20.01
2022-08-10T08:11:25.929Z,19.98
2022-08-10T08:14:03.767Z,20.03
2022-08-10T08:16:44.345Z,20.20
2022-08-10T08:19:35.898Z,20.28
2022-08-10T08:24:08.089Z,20.25
2022-08-10T08:25:23.760Z,20.19
2022-08-10T08:28:15.447Z,20.32
2022-08-10T08:30:56.036Z,20.52
2022-08-10T08:33:41.105Z,20.69
2022-08-10T08:36:47.204Z,20.85
2022-08-10T08:39:29.536Z,20.81
2022-08-10T08:42:33.449Z,20.76
2022-08-10T08:45:35.017Z,20.87
2022-08-10T08:48:33.489Z,21.08
2022-08-10T08:52:09.293Z,21.18
2022-08-10T08:54:33.003Z,21.39
2022-08-10T08:57:49.203Z,21.50
2022-08-10T09:00:41.635Z,21.22
2022-08-10T09:03:49.727Z,21.05
2022-08-10T09:06:41.821Z,21.20
2022-08-10T09:09:50.742Z,21.40
2022-08-10T09:12:46.285Z,21.44
2022-08-10T09:15:40.611Z,21.45
2022-08-10T09:18:28.752Z,21.62
2022-08-10T09:21:16.557Z,21.86
2022-08-10T09:24:26.328Z,21.96
2022-08-10T09:27:21.334Z,21.91
2022-08-10T09:30:32.164Z,21.85
2022-08-10T09:36:24.248Z,21.75
2022-08-10T09:37:03.200Z,21.77
2022-08-10T09:40:56.143Z,22.06
2022-08-10T09:43:39.005Z,21.98
2022-08-10T09:46:34.454Z,21.89
2022-08-10T09:50:04.445Z,21.77
2022-08-10T09:53:00.303Z,21.60
2022-08-10T09:56:19.336Z,21.51
2022-08-10T10:00:00.337Z,21.47
2022-08-10T10:02:53.680Z,21.42
2022-08-10T10:06:16.618Z,21.38
2022-08-10T10:09:09.779Z,21.70
2022-08-10T10:12:09.331Z,22.49
2022-08-10T10:15:24.843Z,23.21
2022-08-10T10:18:14.447Z,23.19
2022-08-10T10:21:01.663Z,23.12
2022-08-10T10:24:21.109Z,23.09
2022-08-10T10:27:28.146Z,23.52
2022-08-10T10:30:22.491Z,24.30
2022-08-10T10:33:19.286Z,24.50
2022-08-10T10:36:08.579Z,24.15
2022-08-10T10:38:57.058Z,24.05
2022-08-10T10:42:04.376Z,24.05
2022-08-10T10:45:41.656Z,24.27
2022-08-10T10:48:44.621Z,24.81
2022-08-10T10:52:11.255Z,25.08
2022-08-10T10:54:48.379Z,25.55
2022-08-10T10:57:58.562Z,25.24
2022-08-10T11:01:00.084Z,24.91
2022-08-10T11:04:00.288Z,25.22
2022-08-10T11:07:00.500Z,25.38
2022-08-10T11:10:05.637Z,25.86
2022-08-10T11:14:24.651Z,25.81
2022-08-10T11:16:37.023Z,25.89
2022-08-10T11:19:17.475Z,26.21
2022-08-10T11:22:04.905Z,25.62
2022-08-10T11:24:58.372Z,24.90
2022-08-10T11:27:49.348Z,24.95
2022-08-10T11:30:36.676Z,25.47
2022-08-10T11:34:04.100Z,25.82
2022-08-10T11:36:50.151Z,25.58
2022-08-10T11:39:49.294Z,25.67
2022-08-10T11:42:43.939Z,26.31
2022-08-10T11:45:52.412Z,26.40
2022-08-10T11:48:54.129Z,26.30
2022-08-10T11:51:44.124Z,25.75
2022-08-10T11:54:18.285Z,25.09
2022-08-10T11:57:02.204Z,24.71
2022-08-10T11:59:59.439Z,24.24
2022-08-10T12:02:59.272Z,23.94
2022-08-10T12:06:14.358Z,24.22
2022-08-10T12:10:10.024Z,23.85
2022-08-10T12:12:26.430Z,23.54
2022-08-10T12:15:06.922Z,23.43
2022-08-10T12:18:05.009Z,23.57
2022-08-10T12:20:52.614Z,24.16
2022-08-10T12:24:03.163Z,25.05
2022-08-10T12:27:18.585Z,25.65
2022-08-10T12:30:03.213Z,26.18
2022-08-10T12:32:48.832Z,26.76
2022-08-10T12:36:18.329Z,27.01
2022-08-10T12:39:10.267Z,26.32
2022-08-10T12:41:55.143Z,25.63
2022-08-10T12:44:45.840Z,25.37
2022-08-10T12:47:53.607Z,25.05
2022-08-10T12:50:39.768Z,24.33
2022-08-10T12:53:52.635Z,23.84
2022-08-10T12:56:47.723Z,23.57
2022-08-10T12:59:28.833Z,23.58
2022-08-10T13:02:24.490Z,24.05
2022-08-10T13:05:11.292Z,25.14
2022-08-10T13:12:38.549Z,26.76
2022-08-10T13:14:47.676Z,26.67
2022-08-10T13:17:42.913Z,26.37
2022-08-10T13:20:20.858Z,25.84
2022-08-10T13:23:24.262Z,25.25
2022-08-10T13:26:08.642Z,24.71
2022-08-10T13:29:12.881Z,24.49
2022-08-10T13:32:10.114Z,24.02
2022-08-10T13:35:07.533Z,23.73
2022-08-10T13:37:54.511Z,23.51
2022-08-10T13:40:50.034Z,23.35
2022-08-10T13:43:48.790Z,23.33
2022-08-10T13:46:35.806Z,23.31
2022-08-10T13:49:34.963Z,23.21
2022-08-10T13:52:11.813Z,23.05
2022-08-10T13:54:57.168Z,22.89
2022-08-10T13:57:47.665Z,22.78
2022-08-10T14:01:21.951Z,22.85
2022-08-10T14:04:11.290Z,23.54
2022-08-10T14:07:15.595Z,24.46
2022-08-10T14:10:18.324Z,25.40
2022-08-10T14:13:20.570Z,26.13
2022-08-10T14:16:00.218Z,26.05
2022-08-10T14:18:28.705Z,25.81
2022-08-10T14:21:14.879Z,25.43
2022-08-10T14:23:59.791Z,24.88
2022-08-10T14:27:27.560Z,24.31
2022-08-10T14:30:40.396Z,23.76
2022-08-10T14:33:26.394Z,23.54
2022-08-10T14:36:22.520Z,23.42
2022-08-10T14:39:13.068Z,23.34
2022-08-10T14:42:02.943Z,23.26
2022-08-10T14:45:38.596Z,23.20
2022-08-10T14:48:31.744Z,23.13
2022-08-10T14:51:44.168Z,22.92
2022-08-10T14:54:28.228Z,22.80
2022-08-10T14:57:12.119Z,22.73
2022-08-10T15:00:22.569Z,22.69
2022-08-10T15:03:10.808Z,22.66
2022-08-10T15:06:17.969Z,22.65
2022-08-10T15:08:50.191Z,22.61
2022-08-10T15:12:15.712Z,22.62
2022-08-10T15:14:45.625Z,22.62
2022-08-10T15:17:42.917Z,22.63
2022-08-10T15:20:51.657Z,22.63
2022-08-10T15:24:05.147Z,22.59
2022-08-10T15:26:57.516Z,22.52
2022-08-10T15:30:00.970Z,22.49
2022-08-10T15:34:02.231Z,22.51
2022-08-10T15:36:47.782Z,22.50
2022-08-10T15:40:21.767Z,22.46
2022-08-10T15:42:59.188Z,22.45
2022-08-10T15:45:28.120Z,22.40
2022-08-10T15:48:21.438Z,22.38
2022-08-10T15:51:54.122Z,22.43
2022-08-10T15:54:58.174Z,22.54
2022-08-10T15:57:48.578Z,22.71
2022-08-10T16:00:23.473Z,22.82
2022-08-10T16:03:21.992Z,22.88
2022-08-10T16:06:04.063Z,22.86
2022-08-10T16:08:56.652Z,22.85
2022-08-10T16:11:43.977Z,22.79
2022-08-10T16:14:37.730Z,22.76
2022-08-10T16:17:24.683Z,22.76
2022-08-10T16:20:05.402Z,22.71
2022-08-10T16:22:43.583Z,22.61
2022-08-10T16:25:23.724Z,22.51
2022-08-10T16:28:35.157Z,22.47
2022-08-10T16:31:15.802Z,22.43
2022-08-10T16:33:53.826Z,22.41
2022-08-10T16:36:51.043Z,22.38
2022-08-10T16:39:59.650Z,22.31
2022-08-10T16:42:37.922Z,22.25
2022-08-10T16:45:27.125Z,22.19
2022-08-10T16:48:02.492Z,22.14
2022-08-10T16:50:54.206Z,22.07
2022-08-10T16:53:26.365Z,22.02
2022-08-10T16:56:02.025Z,21.97
2022-08-10T16:58:46.854Z,21.95
2022-08-10T17:01:38.234Z,21.90
2022-08-10T17:04:18.847Z,21.87
2022-08-10T17:07:14.779Z,21.84
2022-08-10T17:10:08.506Z,21.79
2022-08-10T17:12:41.841Z,21.73
2022-08-10T17:15:26.720Z,21.66
2022-08-10T17:18:05.055Z,21.59
2022-08-10T17:21:12.314Z,21.53
2022-08-10T17:23:54.028Z,21.48
2022-08-10T17:26:38.344Z,21.46
2022-08-10T17:29:59.010Z,21.45
2022-08-10T17:32:51.933Z,21.41
2022-08-10T17:35:26.305Z,21.38
2022-08-10T17:38:03.842Z,21.35
2022-08-10T17:40:55.126Z,21.30
2022-08-10T17:44:00.918Z,21.26
2022-08-10T17:46:49.538Z,21.21
2022-08-10T17:49:55.620Z,21.17
2022-08-10T17:52:42.459Z,21.12
2022-08-10T17:55:30.617Z,21.06
2022-08-10T17:58:19.661Z,21.00
2022-08-10T18:01:38.456Z,20.95
2022-08-10T18:04:13.338Z,20.89
2022-08-10T18:07:08.783Z,20.80
2022-08-10T18:09:53.131Z,20.71
2022-08-10T18:12:38.940Z,20.63
2022-08-10T18:15:38.319Z,20.56
2022-08-10T18:18:31.082Z,20.48
2022-08-10T18:21:34.945Z,20.42
2022-08-10T18:24:23.768Z,20.33
2022-08-10T18:27:22.958Z,20.29
2022-08-10T18:30:33.082Z,20.20
2022-08-10T18:33:17.131Z,20.12
2022-08-10T18:36:06.025Z,20.04
2022-08-10T18:39:07.709Z,19.96
2022-08-10T18:42:02.413Z,19.87
2022-08-10T18:44:44.403Z,19.81
2022-08-10T18:47:42.028Z,19.76
2022-08-10T18:50:52.889Z,19.70
2022-08-10T18:53:51.887Z,19.61
2022-08-10T18:57:24.512Z,19.53
2022-08-10T19:00:47.021Z,19.47
2022-08-10T19:03:29.695Z,19.41
2022-08-10T19:06:20.815Z,19.38
2022-08-10T19:09:41.459Z,19.38
2022-08-10T19:12:36.417Z,19.33
2022-08-10T19:15:43.907Z,19.32
2022-08-10T19:18:36.180Z,19.32
2022-08-10T19:22:05.176Z,19.31
2022-08-10T19:25:08.054Z,19.27
2022-08-10T19:28:56.642Z,19.23
2022-08-10T19:31:52.290Z,19.24
2022-08-10T19:34:57.290Z,19.19
2022-08-10T19:38:00.650Z,19.17
2022-08-10T19:41:09.862Z,19.17
2022-08-10T19:44:33.760Z,19.16
2022-08-10T19:47:49.225Z,19.11
2022-08-10T19:50:49.406Z,19.02
2022-08-10T19:54:01.480Z,18.97
2022-08-10T19:56:49.527Z,18.91
2022-08-10T20:00:15.952Z,18.82
2022-08-10T20:04:00.257Z,18.73
2022-08-10T20:07:09.318Z,18.69
2022-08-10T20:10:24.489Z,18.63
2022-08-10T20:14:23.106Z,18.59
2022-08-10T20:17:51.436Z,18.53
2022-08-10T20:34:40.157Z,18.27
2022-08-10T20:43:40.615Z,18.19
2022-08-10T20:48:18.243Z,18.14
2022-08-10T20:55:14.587Z,18.02
2022-08-10T20:58:11.041Z,17.97
2022-08-10T21:01:14.389Z,17.91
2022-08-10T21:04:29.776Z,17.84
2022-08-10T21:07:28.363Z,17.76
2022-08-10T21:10:38.305Z,17.70
2022-08-10T21:13:35.285Z,17.69
2022-08-10T21:16:43.046Z,17.65
2022-08-10T21:19:58.631Z,17.57
2022-08-10T21:22:50.807Z,17.49
2022-08-10T21:25:32.376Z,17.45
2022-08-10T21:28:29.192Z,17.38
2022-08-10T21:31:21.782Z,17.30
2022-08-10T21:34:31.832Z,17.21
2022-08-10T21:37:39.774Z,17.13
2022-08-10T21:40:34.735Z,17.09
2022-08-10T21:43:48.194Z,17.08
2022-08-10T21:46:55.153Z,17.10
2022-08-10T21:50:08.615Z,17.13
2022-08-10T21:53:43.739Z,17.09
2022-08-10T21:57:20.733Z,17.06
2022-08-10T22:03:49.459Z,16.96
2022-08-10T22:06:55.335Z,16.88
2022-08-10T22:09:54.872Z,16.84
2022-08-10T22:12:56.285Z,16.83
2022-08-10T22:16:11.993Z,16.81
2022-08-10T22:19:21.176Z,16.79
2022-08-10T22:22:30.210Z,16.74
2022-08-10T22:25:52.073Z,16.71
2022-08-10T22:28:40.819Z,16.65
2022-08-10T22:31:55.215Z,16.62
2022-08-10T22:35:09.487Z,16.59
2022-08-10T22:38:34.156Z,16.60
2022-08-10T22:41:49.137Z,16.61
2022-08-10T22:44:48.223Z,16.63
2022-08-10T22:47:49.402Z,16.65
2022-08-10T22:50:32.675Z,16.65
2022-08-10T22:53:15.345Z,16.63
2022-08-10T22:56:41.123Z,16.61
2022-08-10T22:59:39.348Z,16.59
2022-08-10T23:02:22.464Z,16.58
2022-08-10T23:05:07.519Z,16.58
2022-08-10T23:08:03.865Z,16.57
2022-08-10T23:10:54.291Z,16.55
2022-08-10T23:13:53.982Z,16.50
2022-08-10T23:16:59.801Z,16.49
2022-08-10T23:20:09.628Z,16.48
2022-08-10T23:22:50.511Z,16.43
2022-08-10T23:25:30.103Z,16.37
2022-08-10T23:28:39.119Z,16.34
2022-08-10T23:32:00.668Z,16.34
2022-08-10T23:34:36.925Z,16.34
2022-08-10T23:37:21.263Z,16.33
2022-08-10T23:39:54.634Z,16.34
2022-08-10T23:42:40.077Z,16.33
2022-08-10T23:45:53.384Z,16.31
2022-08-10T23:48:30.378Z,16.29
2022-08-10T23:51:25.728Z,16.33
2022-08-10T23:54:16.637Z,16.32
2022-08-10T23:57:01.114Z,16.33
2022-08-10T23:59:41.517Z,16.32
